Woodsprings, Arizona
Current Conditions -  °F | °C
As of 9:53 PM on Thursday 27 Nov 2014 (Local Time) from KGUP Reporting Station
Clear Clear  
Wind Chill: 24°   Ceiling: Unl
Heat Index: 29°   Visibility: 10mi
Dew Point:   Wind: 5mph
Humidity: 36%   Direction: 60°ENE
Pressure: 30.37"   Gusts: NA
Location:  35.6053°N, 109.458°W
Report Text: KGUP 280453Z AUTO 06004KT 10SM CLR M02/M15 A3037 RMK AO2 SLP296 T10171150
Loading
Personal Weather Stations






























Interactive Weather Map New forecast layout! Learn more

10-Day Weather Forecast

Advertisements
Track Severe Weather on mobile